Time;durP1;ratioP1;P1;durP2;ratioP2;P2;SDS_P1;SDS_P2;PMS_P1;PMS_P2;Temp;Humidity;BMP_temperature;BMP_pressure;BME280_temperature;BME280_humidity;BME280_pressure;Samples;Min_cycle;Max_cycle;Signal;HPM_P1;HPM_P2
2023/06/13 00:01:48;;;;;;;7.47;6.60;;;22.60;99.90;;;;;;4952412;28;20227;-58
2023/06/13 00:04:21;;;;;;;7.37;6.67;;;22.50;99.90;;;;;;4951711;28;20230;-58
2023/06/13 00:06:53;;;;;;;8.40;7.03;;;22.50;99.90;;;;;;4954966;28;20617;-58
2023/06/13 00:09:22;;;;;;;8.07;7.27;;;22.50;99.90;;;;;;4948538;28;20247;-58
2023/06/13 00:11:51;;;;;;;7.93;7.13;;;22.40;99.90;;;;;;4955519;28;20220;-58
2023/06/13 00:14:20;;;;;;;7.97;7.17;;;22.50;99.90;;;;;;4955596;28;20232;-58
2023/06/13 00:16:50;;;;;;;9.83;6.63;;;22.40;99.90;;;;;;4955626;28;20599;-58
2023/06/13 00:19:19;;;;;;;8.43;7.00;;;22.40;99.90;;;;;;4950721;29;20192;-58
2023/06/13 00:21:48;;;;;;;11.03;7.43;;;22.40;99.90;;;;;;4955746;28;20583;-58
2023/06/13 00:24:18;;;;;;;8.07;7.10;;;22.40;99.90;;;;;;4947393;28;20217;-58
2023/06/13 00:26:46;;;;;;;8.83;7.23;;;22.40;99.90;;;;;;4955504;28;20216;-58
2023/06/13 00:29:15;;;;;;;8.13;7.43;;;22.40;99.90;;;;;;4954895;28;20220;-58
2023/06/13 00:31:43;;;;;;;7.50;6.70;;;22.40;99.90;;;;;;4955154;28;20247;-58
2023/06/13 00:34:12;;;;;;;7.20;6.60;;;22.30;99.90;;;;;;4955347;28;20196;-58
2023/06/13 00:36:43;;;;;;;7.70;7.00;;;22.30;99.90;;;;;;4955163;28;20691;-58
2023/06/13 00:39:12;;;;;;;7.93;7.10;;;22.30;99.90;;;;;;4955172;28;20224;-58
2023/06/13 00:41:42;;;;;;;8.43;6.87;;;22.20;99.90;;;;;;4952174;28;20244;-58
2023/06/13 00:44:10;;;;;;;8.07;7.27;;;22.20;99.90;;;;;;4953693;28;20623;-58
2023/06/13 00:46:41;;;;;;;7.20;6.60;;;22.10;99.90;;;;;;4952548;28;20196;-58
2023/06/13 00:49:09;;;;;;;7.93;7.20;;;22.10;99.90;;;;;;4952903;28;20236;-58
2023/06/13 00:51:40;;;;;;;8.80;7.30;;;22.10;99.90;;;;;;4953391;28;20560;-58
2023/06/13 00:54:10;;;;;;;8.47;7.03;;;22.10;99.90;;;;;;4953131;28;20220;-57
2023/06/13 00:56:40;;;;;;;7.90;7.10;;;22.10;99.90;;;;;;4952401;28;20222;-58
2023/06/13 00:59:11;;;;;;;10.27;7.30;;;22.10;99.90;;;;;;4953058;28;20230;-58
2023/06/13 01:01:40;;;;;;;9.93;7.10;;;22.00;99.90;;;;;;4952236;28;20253;-58
2023/06/13 01:04:09;;;;;;;9.17;6.90;;;22.00;99.90;;;;;;4953450;29;20216;-58
2023/06/13 01:06:40;;;;;;;8.03;7.23;;;21.90;99.90;;;;;;4950292;28;20235;-58
2023/06/13 01:09:09;;;;;;;9.93;7.37;;;21.90;99.90;;;;;;4947039;28;20224;-58
2023/06/13 01:11:47;;;;;;;7.90;7.10;;;21.80;99.90;;;;;;4951546;28;20240;-57
2023/06/13 01:14:24;;;;;;;8.20;7.40;;;21.70;99.90;;;;;;4952441;28;20230;-58
2023/06/13 01:16:57;;;;;;;7.90;7.17;;;21.60;99.90;;;;;;4953679;28;20211;-57
2023/06/13 01:19:37;;;;;;;7.90;7.20;;;21.40;99.90;;;;;;4948133;28;20196;-58
2023/06/13 01:22:11;;;;;;;8.03;7.20;;;21.30;99.90;;;;;;4953172;29;20199;-57
2023/06/13 01:24:58;;;;;;;8.60;7.87;;;21.20;99.90;;;;;;4949567;28;20227;-58
2023/06/13 01:27:29;;;;;;;12.13;7.70;;;21.10;99.90;;;;;;4951531;28;20239;-57
2023/06/13 01:30:00;;;;;;;8.43;7.30;;;21.00;99.90;;;;;;4951977;28;20216;-58
2023/06/13 01:32:30;;;;;;;12.03;7.13;;;20.80;99.90;;;;;;4949309;28;20224;-58
2023/06/13 01:35:00;;;;;;;8.40;7.60;;;20.70;99.90;;;;;;4950022;28;20691;-58
2023/06/13 01:37:30;;;;;;;7.93;7.20;;;20.70;99.90;;;;;;4952354;28;20188;-57
2023/06/13 01:39:58;;;;;;;8.07;7.37;;;20.60;99.90;;;;;;4952111;29;20196;-57
2023/06/13 01:42:28;;;;;;;9.40;7.47;;;20.50;99.90;;;;;;4952521;28;20216;-57
2023/06/13 01:44:56;;;;;;;8.50;7.80;;;20.50;99.90;;;;;;4950169;28;20216;-58
2023/06/13 01:47:33;;;;;;;7.73;6.90;;;20.40;99.90;;;;;;4953417;28;20223;-58
2023/06/13 01:50:11;;;;;;;8.20;7.40;;;20.40;99.90;;;;;;4952127;28;20282;-58
2023/06/13 01:52:48;;;;;;;8.00;6.80;;;20.40;99.90;;;;;;4951270;28;20757;-57
2023/06/13 01:55:23;;;;;;;10.17;7.40;;;20.30;99.90;;;;;;4949341;28;20185;-58
2023/06/13 01:57:58;;;;;;;8.47;7.43;;;20.30;99.90;;;;;;4955653;28;20839;-57
2023/06/13 02:00:27;;;;;;;8.50;7.57;;;20.30;99.90;;;;;;4951996;28;20219;-58
2023/06/13 02:02:57;;;;;;;7.83;7.13;;;20.30;99.90;;;;;;4955053;28;20728;-57
2023/06/13 02:05:27;;;;;;;8.00;7.30;;;20.20;99.90;;;;;;4952382;28;20243;-58
2023/06/13 02:07:56;;;;;;;8.00;7.30;;;20.20;99.90;;;;;;4953663;28;20250;-57
2023/06/13 02:10:25;;;;;;;9.40;7.50;;;20.20;99.90;;;;;;4948921;28;20216;-58
2023/06/13 02:12:55;;;;;;;8.87;7.40;;;20.10;99.90;;;;;;4954286;28;20559;-58
2023/06/13 02:15:23;;;;;;;8.00;7.30;;;20.00;99.90;;;;;;4953731;28;20216;-57
2023/06/13 02:17:51;;;;;;;8.30;7.53;;;20.00;99.90;;;;;;4951816;28;20224;-58
2023/06/13 02:20:19;;;;;;;9.67;7.50;;;20.00;99.90;;;;;;4950342;28;20622;-57
2023/06/13 02:22:48;;;;;;;7.70;7.00;;;19.90;99.90;;;;;;4952012;28;20228;-57
2023/06/13 02:25:17;;;;;;;9.33;7.47;;;19.80;99.90;;;;;;4949980;28;20250;-57
2023/06/13 02:27:46;;;;;;;8.07;7.23;;;19.80;99.90;;;;;;4953397;29;20267;-57
2023/06/13 02:30:16;;;;;;;14.90;8.23;;;19.80;99.90;;;;;;4952636;28;20220;-58
2023/06/13 02:32:46;;;;;;;7.77;7.00;;;19.70;99.90;;;;;;4954265;28;20246;-57
2023/06/13 02:35:15;;;;;;;8.27;7.53;;;19.70;99.90;;;;;;4953696;28;20278;-58
2023/06/13 02:37:43;;;;;;;9.47;7.70;;;19.60;99.90;;;;;;4953110;28;20618;-57
2023/06/13 02:40:12;;;;;;;8.33;7.50;;;19.60;99.90;;;;;;4957636;28;20200;-57
2023/06/13 02:42:41;;;;;;;8.03;7.23;;;19.60;99.90;;;;;;4956557;28;20227;-57
2023/06/13 02:45:10;;;;;;;8.53;7.67;;;19.50;99.90;;;;;;4955925;28;20247;-58
2023/06/13 02:47:39;;;;;;;8.63;7.73;;;19.50;99.90;;;;;;4956507;28;20223;-57
2023/06/13 02:50:08;;;;;;;8.23;7.47;;;19.50;99.90;;;;;;4955569;28;20224;-58
2023/06/13 02:52:37;;;;;;;8.40;7.60;;;19.40;99.90;;;;;;4955022;28;20210;-58
2023/06/13 02:55:10;;;;;;;8.83;7.40;;;19.40;99.90;;;;;;4956348;28;20288;-58
2023/06/13 02:57:39;;;;;;;10.80;7.30;;;19.40;99.90;;;;;;4951225;28;20225;-58
2023/06/13 03:00:11;;;;;;;8.90;7.87;;;19.30;99.90;;;;;;4953510;28;20224;-58
2023/06/13 03:02:43;;;;;;;13.43;7.17;;;19.30;99.90;;;;;;4952218;28;20283;-58
2023/06/13 03:05:14;;;;;;;7.97;6.90;;;19.30;99.90;;;;;;4952260;28;20286;-57
2023/06/13 03:07:46;;;;;;;9.30;8.40;;;19.20;99.90;;;;;;4954506;28;20235;-58
2023/06/13 03:10:15;;;;;;;8.77;7.80;;;19.10;99.90;;;;;;4955193;28;20196;-58
2023/06/13 03:12:45;;;;;;;10.13;7.87;;;19.10;99.90;;;;;;4955706;28;20247;-58
2023/06/13 03:15:13;;;;;;;12.50;8.43;;;19.00;99.90;;;;;;4956058;28;20563;-58
2023/06/13 03:17:43;;;;;;;9.23;7.77;;;19.00;99.90;;;;;;4955004;28;20220;-57
2023/06/13 03:20:12;;;;;;;8.63;7.83;;;18.80;99.90;;;;;;4956034;28;20243;-58
2023/06/13 03:22:40;;;;;;;9.33;7.60;;;18.80;99.90;;;;;;4956417;28;20238;-57
2023/06/13 03:25:08;;;;;;;11.20;7.53;;;18.70;99.90;;;;;;4954487;28;20224;-58
2023/06/13 03:27:37;;;;;;;9.50;8.00;;;18.70;99.90;;;;;;4954441;28;20227;-57
2023/06/13 03:30:07;;;;;;;8.93;7.73;;;18.60;99.90;;;;;;4956494;28;20231;-58
2023/06/13 03:32:36;;;;;;;8.87;7.80;;;18.60;99.90;;;;;;4956010;28;20271;-57
2023/06/13 03:35:06;;;;;;;10.60;7.80;;;18.50;99.90;;;;;;4956258;28;20224;-57
2023/06/13 03:37:35;;;;;;;8.53;7.57;;;18.50;99.90;;;;;;4955421;28;20192;-57
2023/06/13 03:40:03;;;;;;;8.33;7.53;;;18.40;99.90;;;;;;4952863;28;20200;-57
2023/06/13 03:42:32;;;;;;;9.03;8.00;;;18.40;99.90;;;;;;4954359;28;20247;-57
2023/06/13 03:45:00;;;;;;;12.27;7.80;;;18.40;99.90;;;;;;4951494;28;20246;-57
2023/06/13 03:47:28;;;;;;;8.60;7.80;;;18.30;99.90;;;;;;4953349;28;20717;-57
2023/06/13 03:49:57;;;;;;;11.03;7.83;;;18.30;99.90;;;;;;4952703;28;20679;-57
2023/06/13 03:52:27;;;;;;;8.67;7.77;;;18.30;99.90;;;;;;4953806;28;20197;-57
2023/06/13 03:54:55;;;;;;;12.73;8.37;;;18.30;99.90;;;;;;4948185;29;20203;-57
2023/06/13 03:57:24;;;;;;;8.67;7.70;;;18.20;99.90;;;;;;4953745;28;20231;-56
2023/06/13 03:59:52;;;;;;;10.20;7.80;;;18.20;99.90;;;;;;4953511;28;20231;-58
2023/06/13 04:02:20;;;;;;;14.10;8.20;;;18.20;99.90;;;;;;4953585;28;20232;-57
2023/06/13 04:04:52;;;;;;;12.20;8.13;;;18.20;99.90;;;;;;4950360;28;20239;-57
2023/06/13 04:07:21;;;;;;;12.20;8.30;;;18.20;99.90;;;;;;4949714;28;20243;-57
2023/06/13 04:09:51;;;;;;;12.53;8.63;;;18.20;99.90;;;;;;4952152;29;20181;-57
2023/06/13 04:12:21;;;;;;;11.40;8.47;;;18.20;99.90;;;;;;4952452;28;20227;-58
2023/06/13 04:14:49;;;;;;;13.30;8.53;;;18.20;99.90;;;;;;4954190;28;20219;-57
2023/06/13 04:17:18;;;;;;;12.63;8.70;;;18.20;99.90;;;;;;4955079;28;20232;-57
2023/06/13 04:19:48;;;;;;;9.37;8.47;;;18.20;99.90;;;;;;4954048;28;20271;-57
2023/06/13 04:22:18;;;;;;;10.27;8.00;;;18.20;99.90;;;;;;4955482;28;20192;-57
2023/06/13 04:24:47;;;;;;;12.57;7.90;;;18.20;99.90;;;;;;4955340;28;20256;-58
2023/06/13 04:27:19;;;;;;;10.23;7.97;;;18.20;99.90;;;;;;4948242;28;20286;-57
2023/06/13 04:29:49;;;;;;;11.83;8.20;;;18.30;99.90;;;;;;4954115;28;20223;-57
2023/06/13 04:32:18;;;;;;;10.03;7.93;;;18.40;99.90;;;;;;4953933;28;20215;-57
2023/06/13 04:34:52;;;;;;;11.33;8.90;;;18.40;99.90;;;;;;4954952;28;20571;-57
2023/06/13 04:37:23;;;;;;;13.00;8.60;;;18.50;99.90;;;;;;4954139;28;20204;-57
2023/06/13 04:39:52;;;;;;;9.33;7.70;;;18.60;99.90;;;;;;4955375;28;20279;-58
2023/06/13 04:42:24;;;;;;;12.97;7.73;;;18.70;99.90;;;;;;4951815;28;20697;-57
2023/06/13 04:44:55;;;;;;;11.17;7.43;;;18.70;99.90;;;;;;4948031;28;20737;-57
2023/06/13 04:47:25;;;;;;;12.67;7.27;;;18.80;99.90;;;;;;4954408;28;20256;-57
2023/06/13 04:50:02;;;;;;;10.37;8.33;;;18.90;99.90;;;;;;4949775;28;20235;-57
2023/06/13 04:52:32;;;;;;;9.77;7.63;;;19.00;99.90;;;;;;4953466;28;20198;-58
2023/06/13 04:55:02;;;;;;;9.43;8.33;;;19.10;99.90;;;;;;4948954;28;20211;-58
2023/06/13 04:57:32;;;;;;;9.33;8.33;;;19.20;99.90;;;;;;4953386;28;20224;-58
2023/06/13 05:00:00;;;;;;;10.83;7.43;;;19.20;99.90;;;;;;4951590;28;20769;-58
2023/06/13 05:02:29;;;;;;;8.77;7.87;;;19.30;99.90;;;;;;4950952;28;20279;-58
2023/06/13 05:04:57;;;;;;;7.80;6.87;;;19.40;99.90;;;;;;4949681;28;20231;-58
2023/06/13 05:07:28;;;;;;;12.93;8.00;;;19.50;99.90;;;;;;4951446;28;20216;-58
2023/06/13 05:09:56;;;;;;;9.17;8.07;;;19.60;99.90;;;;;;4953798;28;20200;-58
2023/06/13 05:12:25;;;;;;;8.53;7.73;;;19.60;99.90;;;;;;4954112;28;20216;-58
2023/06/13 05:14:54;;;;;;;12.37;7.77;;;19.70;99.90;;;;;;4953252;28;20224;-58
2023/06/13 05:17:23;;;;;;;9.47;7.40;;;19.70;99.90;;;;;;4953142;28;20220;-58
2023/06/13 05:19:52;;;;;;;10.73;7.87;;;19.80;99.90;;;;;;4950534;28;20294;-57
2023/06/13 05:22:21;;;;;;;10.30;8.00;;;19.90;99.90;;;;;;4953490;28;20200;-57
2023/06/13 05:24:49;;;;;;;10.83;7.33;;;20.00;99.90;;;;;;4954168;28;20200;-58
2023/06/13 05:27:17;;;;;;;9.73;7.63;;;20.00;99.90;;;;;;4950023;28;20731;-58
2023/06/13 05:29:46;;;;;;;8.57;7.27;;;20.10;99.90;;;;;;4954233;28;20713;-58
2023/06/13 05:32:15;;;;;;;12.00;7.37;;;20.10;99.90;;;;;;4951897;28;20223;-58
2023/06/13 05:34:44;;;;;;;8.80;7.90;;;20.20;99.90;;;;;;4951220;28;20258;-58
2023/06/13 05:37:12;;;;;;;11.17;7.87;;;20.20;99.90;;;;;;4952182;28;20199;-58
2023/06/13 05:39:41;;;;;;;10.83;8.33;;;20.30;99.90;;;;;;4948785;28;20219;-58
2023/06/13 05:42:10;;;;;;;8.63;7.50;;;20.40;99.90;;;;;;4953195;28;20238;-58
2023/06/13 05:44:38;;;;;;;7.83;7.07;;;20.50;99.90;;;;;;4954140;28;20275;-58
2023/06/13 05:47:07;;;;;;;10.80;7.73;;;20.60;99.90;;;;;;4945852;28;20234;-58
2023/06/13 05:49:37;;;;;;;15.60;8.23;;;20.60;99.90;;;;;;4948908;28;20217;-58
2023/06/13 05:52:06;;;;;;;11.10;7.97;;;20.70;99.90;;;;;;4953655;28;20204;-58
2023/06/13 05:54:36;;;;;;;14.63;7.70;;;20.80;99.90;;;;;;4952968;28;20220;-58
2023/06/13 05:57:05;;;;;;;9.63;7.00;;;20.90;99.90;;;;;;4953380;28;20224;-58
2023/06/13 05:59:33;;;;;;;10.07;7.23;;;21.00;99.90;;;;;;4953550;28;20235;-58
2023/06/13 06:02:02;;;;;;;10.80;7.47;;;21.00;99.90;;;;;;4953647;28;20224;-58
2023/06/13 06:04:30;;;;;;;12.10;8.00;;;21.10;99.90;;;;;;4951829;28;20635;-59
2023/06/13 06:07:00;;;;;;;9.70;6.90;;;21.10;99.90;;;;;;4950010;29;20216;-58
2023/06/13 06:09:29;;;;;;;9.93;7.00;;;21.20;99.90;;;;;;4952692;28;20215;-58
2023/06/13 06:11:57;;;;;;;7.67;6.97;;;21.30;99.90;;;;;;4953269;28;20314;-58
2023/06/13 06:14:26;;;;;;;9.90;7.30;;;21.30;99.90;;;;;;4953753;28;20223;-58
2023/06/13 06:16:55;;;;;;;11.47;7.10;;;21.40;99.90;;;;;;4953743;28;20227;-59
2023/06/13 06:19:23;;;;;;;10.70;7.10;;;21.50;99.90;;;;;;4953092;28;20200;-58
2023/06/13 06:21:51;;;;;;;9.27;7.80;;;21.60;99.90;;;;;;4953251;28;20200;-58
2023/06/13 06:24:23;;;;;;;10.27;6.70;;;21.60;99.90;;;;;;4952616;28;20227;-58
2023/06/13 06:26:51;;;;;;;11.23;7.10;;;21.70;99.90;;;;;;4945376;28;20224;-59
2023/06/13 06:29:20;;;;;;;11.23;7.10;;;21.80;99.90;;;;;;4951477;28;20763;-58
2023/06/13 06:31:49;;;;;;;8.17;7.17;;;21.80;99.90;;;;;;4951130;28;20216;-58
2023/06/13 06:34:17;;;;;;;10.17;6.70;;;21.90;99.90;;;;;;4952302;28;20203;-58
2023/06/13 06:36:45;;;;;;;11.37;6.97;;;21.90;99.90;;;;;;4952160;28;20221;-58
2023/06/13 06:39:15;;;;;;;8.77;6.57;;;21.90;99.90;;;;;;4947652;28;20254;-59
2023/06/13 06:41:45;;;;;;;8.30;6.40;;;21.90;99.90;;;;;;4953082;28;20307;-58
2023/06/13 06:44:14;;;;;;;11.50;6.67;;;22.00;99.90;;;;;;4950951;28;20243;-58
2023/06/13 06:46:42;;;;;;;9.70;6.60;;;22.10;99.90;;;;;;4951819;28;20582;-59
2023/06/13 06:49:10;;;;;;;10.07;6.63;;;22.20;99.90;;;;;;4949842;29;20200;-58
2023/06/13 06:51:41;;;;;;;9.53;6.57;;;22.30;99.90;;;;;;4949764;28;20560;-58
2023/06/13 06:54:10;;;;;;;10.33;6.63;;;22.40;99.90;;;;;;4950934;28;20220;-58
2023/06/13 06:56:39;;;;;;;7.10;6.33;;;22.40;99.90;;;;;;4952307;28;20214;-59
2023/06/13 06:59:09;;;;;;;10.73;6.20;;;22.40;99.90;;;;;;4951625;28;20614;-58
2023/06/13 07:01:37;;;;;;;9.90;6.57;;;22.50;99.90;;;;;;4952667;28;20548;-59
2023/06/13 07:04:05;;;;;;;9.70;6.13;;;22.60;99.90;;;;;;4952613;29;20377;-58
2023/06/13 07:06:34;;;;;;;10.97;6.13;;;22.60;99.90;;;;;;4950893;28;20224;-58
2023/06/13 07:09:02;;;;;;;7.47;6.23;;;22.60;99.90;;;;;;4952132;28;20703;-59
2023/06/13 07:11:30;;;;;;;7.03;6.33;;;22.70;99.90;;;;;;4953643;28;20923;-58
2023/06/13 07:13:59;;;;;;;8.27;6.30;;;22.90;99.90;;;;;;4948465;28;20627;-59
2023/06/13 07:16:31;;;;;;;8.43;6.67;;;22.90;99.90;;;;;;4956692;28;20192;-58
2023/06/13 07:19:00;;;;;;;7.27;6.20;;;23.00;99.90;;;;;;4957619;28;21530;-59
2023/06/13 07:21:28;;;;;;;6.93;5.80;;;23.00;99.90;;;;;;4956783;28;20224;-58
2023/06/13 07:23:57;;;;;;;6.50;5.90;;;23.10;99.90;;;;;;4957033;28;20743;-59
2023/06/13 07:26:35;;;;;;;7.30;6.20;;;23.20;99.90;;;;;;4956803;28;20223;-58
2023/06/13 07:29:04;;;;;;;9.00;6.17;;;23.30;99.90;;;;;;4956996;28;20234;-59
2023/06/13 07:31:33;;;;;;;6.53;5.87;;;23.40;99.90;;;;;;4957010;28;20532;-59
2023/06/13 07:34:02;;;;;;;8.23;6.13;;;23.50;99.90;;;;;;4956963;29;20200;-59
2023/06/13 07:36:30;;;;;;;6.27;5.70;;;23.70;99.90;;;;;;4956989;28;20238;-59
2023/06/13 07:39:00;;;;;;;12.40;6.17;;;23.80;99.90;;;;;;4957088;28;20707;-59
2023/06/13 07:41:34;;;;;;;11.67;5.80;;;23.90;99.90;;;;;;4955508;28;20569;-59
2023/06/13 07:44:02;;;;;;;7.30;5.60;;;23.90;99.90;;;;;;4953059;28;20232;-58
2023/06/13 07:46:30;;;;;;;6.03;5.43;;;24.00;99.90;;;;;;4954803;28;20209;-59
2023/06/13 07:49:00;;;;;;;9.70;5.87;;;24.00;99.90;;;;;;4955156;29;20247;-59
2023/06/13 07:51:29;;;;;;;6.00;5.50;;;24.00;99.90;;;;;;4956095;28;20697;-58
2023/06/13 07:54:18;;;;;;;9.00;5.90;;;24.00;99.90;;;;;;4954338;28;20603;-59
2023/06/13 07:56:47;;;;;;;13.40;5.63;;;24.20;99.90;;;;;;4954556;28;20224;-59
2023/06/13 07:59:16;;;;;;;7.53;5.53;;;24.40;99.90;;;;;;4953043;28;20230;-59
2023/06/13 08:01:44;;;;;;;7.57;5.60;;;24.50;99.90;;;;;;4951850;28;20232;-59
2023/06/13 08:04:14;;;;;;;10.37;5.53;;;24.70;99.90;;;;;;4955295;29;20205;-59
2023/06/13 08:06:43;;;;;;;8.30;5.53;;;24.80;99.90;;;;;;4951912;28;20217;-59
2023/06/13 08:09:11;;;;;;;7.50;5.43;;;25.00;99.90;;;;;;4955654;28;20242;-58
2023/06/13 08:11:40;;;;;;;8.73;5.30;;;25.00;99.90;;;;;;4953557;28;20220;-59
2023/06/13 08:14:12;;;;;;;6.80;5.10;;;25.10;99.90;;;;;;4956296;28;20229;-59
2023/06/13 08:16:42;;;;;;;5.17;4.77;;;25.30;99.90;;;;;;4955769;28;20229;-58
2023/06/13 08:19:10;;;;;;;5.40;4.90;;;25.40;99.90;;;;;;4954110;28;20568;-59
2023/06/13 08:21:40;;;;;;;6.90;5.20;;;25.60;99.90;;;;;;4956055;28;20246;-59
2023/06/13 08:24:09;;;;;;;5.63;5.00;;;25.70;99.90;;;;;;4946614;28;20599;-59
2023/06/13 08:26:38;;;;;;;6.70;5.10;;;25.80;99.90;;;;;;4955001;28;20267;-59
2023/06/13 08:29:06;;;;;;;5.90;5.00;;;26.00;99.90;;;;;;4955534;28;20232;-59
2023/06/13 08:31:34;;;;;;;5.33;4.70;;;26.10;99.90;;;;;;4955523;28;20682;-59
2023/06/13 08:34:06;;;;;;;5.60;5.17;;;26.20;99.90;;;;;;4956462;28;20547;-60
2023/06/13 08:36:38;;;;;;;5.87;5.27;;;26.30;99.90;;;;;;4948085;29;20220;-59
2023/06/13 08:39:08;;;;;;;8.17;5.13;;;26.40;99.90;;;;;;4950096;28;20230;-59
2023/06/13 08:41:38;;;;;;;8.20;5.10;;;26.60;99.90;;;;;;4952236;28;20216;-59
2023/06/13 08:44:09;;;;;;;11.00;5.07;;;26.60;99.90;;;;;;4951847;28;20280;-59
2023/06/13 08:46:38;;;;;;;6.93;5.47;;;26.60;99.90;;;;;;4954657;28;20270;-59
2023/06/13 08:49:07;;;;;;;7.20;4.80;;;26.70;99.90;;;;;;4952818;28;20212;-59
2023/06/13 08:51:43;;;;;;;8.63;5.50;;;26.70;99.90;;;;;;4955088;28;20220;-59
2023/06/13 08:54:16;;;;;;;7.10;5.10;;;26.80;99.90;;;;;;4954286;28;20234;-59
2023/06/13 08:56:45;;;;;;;8.43;5.07;;;26.90;99.90;;;;;;4948542;28;20324;-59
2023/06/13 08:59:18;;;;;;;5.80;5.20;;;27.10;99.90;;;;;;4947408;28;20228;-59
2023/06/13 09:01:48;;;;;;;5.43;4.70;;;27.10;99.90;;;;;;4947917;28;20283;-59
2023/06/13 09:04:18;;;;;;;10.97;5.73;;;27.30;99.90;;;;;;4953662;29;20200;-60
2023/06/13 09:06:49;;;;;;;5.87;4.60;;;27.30;99.90;;;;;;4954982;29;20224;-59
2023/06/13 09:09:19;;;;;;;6.47;4.73;;;27.40;99.90;;;;;;4947784;28;20225;-59
2023/06/13 09:11:49;;;;;;;5.43;4.77;;;27.40;99.90;;;;;;4947217;28;20230;-59
2023/06/13 09:14:20;;;;;;;5.30;4.90;;;27.60;99.90;;;;;;4949696;28;20279;-59
2023/06/13 09:16:51;;;;;;;7.53;4.83;;;27.80;99.90;;;;;;4957733;28;20225;-59
2023/06/13 09:19:20;;;;;;;8.27;4.60;;;28.00;99.90;;;;;;4952758;28;20196;-59
2023/06/13 09:21:48;;;;;;;5.70;4.70;;;28.10;99.90;;;;;;4955501;28;20225;-59
2023/06/13 09:24:18;;;;;;;7.45;5.10;;;28.10;99.90;;;;;;4952854;28;20293;-59
2023/06/13 09:26:47;;;;;;;5.75;4.90;;;28.20;99.90;;;;;;4954007;28;20236;-60
2023/06/13 09:29:15;;;;;;;6.07;4.75;;;28.20;99.90;;;;;;4952141;28;20737;-60
2023/06/13 09:32:05;;;;;;;7.65;5.35;;;28.50;99.90;;;;;;4947122;28;20225;-59
2023/06/13 09:34:35;;;;;;;5.72;4.97;;;28.50;99.90;;;;;;4953377;28;20682;-59
2023/06/13 09:37:03;;;;;;;6.75;4.78;;;28.70;99.90;;;;;;4953666;28;20204;-60
2023/06/13 09:39:35;;;;;;;6.63;5.05;;;28.70;99.90;;;;;;4949860;28;20225;-59
2023/06/13 09:42:06;;;;;;;7.05;4.50;;;28.90;99.90;;;;;;4950932;28;20216;-59
2023/06/13 09:44:35;;;;;;;5.60;4.25;;;29.10;99.90;;;;;;4950618;28;20236;-60
2023/06/13 09:47:20;;;;;;;5.40;4.97;;;29.10;99.90;;;;;;4948869;28;20268;-60
2023/06/13 09:49:52;;;;;;;7.75;5.10;;;29.30;99.90;;;;;;4949381;28;20591;-59
2023/06/13 09:52:44;;;;;;;11.65;5.40;;;29.30;99.10;;;;;;4954068;28;20227;-60
2023/06/13 09:55:14;;;;;;;7.35;4.40;;;29.40;99.90;;;;;;4944812;29;20193;-59
2023/06/13 09:57:43;;;;;;;5.50;4.93;;;29.40;98.50;;;;;;4952677;28;20229;-60
2023/06/13 10:00:32;;;;;;;7.70;5.28;;;29.40;99.20;;;;;;4953742;28;20222;-59
2023/06/13 10:03:01;;;;;;;5.10;4.70;;;29.40;97.70;;;;;;4953081;28;20226;-59
2023/06/13 10:05:39;;;;;;;5.57;5.07;;;29.30;98.00;;;;;;4952038;28;20248;-60
2023/06/13 10:08:08;;;;;;;5.28;4.75;;;29.40;98.90;;;;;;4951019;28;20230;-59
2023/06/13 10:10:37;;;;;;;5.50;4.45;;;29.40;99.50;;;;;;4946697;28;20210;-60
2023/06/13 10:13:10;;;;;;;4.95;4.53;;;29.70;98.90;;;;;;4952316;28;20207;-60
2023/06/13 10:15:44;;;;;;;6.78;4.57;;;29.80;98.50;;;;;;4949714;28;20227;-59
2023/06/13 10:18:15;;;;;;;5.50;4.53;;;30.00;98.50;;;;;;4953053;28;20220;-60
2023/06/13 10:20:48;;;;;;;5.53;5.10;;;30.40;96.30;;;;;;4954450;28;20575;-60
2023/06/13 10:23:18;;;;;;;5.75;4.55;;;30.50;96.30;;;;;;4954606;28;20232;-59
2023/06/13 10:25:52;;;;;;;4.85;4.55;;;30.60;95.40;;;;;;4953948;28;20239;-60
2023/06/13 10:28:39;;;;;;;5.45;4.32;;;30.50;95.70;;;;;;4949030;28;20219;-58
2023/06/13 10:31:15;;;;;;;7.57;5.10;;;30.70;95.10;;;;;;4952008;29;20203;-59
2023/06/13 10:34:05;;;;;;;4.43;4.13;;;30.60;95.40;;;;;;4953746;28;20286;-60
2023/06/13 10:36:50;;;;;;;9.77;4.30;;;30.60;93.50;;;;;;4953439;28;20726;-60
2023/06/13 10:39:41;;;;;;;7.47;4.75;;;30.60;94.60;;;;;;4953261;28;20694;-60
2023/06/13 10:42:29;;;;;;;7.55;4.47;;;31.00;94.80;;;;;;4956378;28;20619;-60
2023/06/13 10:45:01;;;;;;;5.30;4.55;;;31.10;92.10;;;;;;4953548;28;20224;-60
2023/06/13 10:47:31;;;;;;;5.53;4.65;;;31.00;92.70;;;;;;4954019;28;20233;-59
2023/06/13 10:50:00;;;;;;;7.40;4.90;;;31.10;93.00;;;;;;4957227;28;20228;-60
2023/06/13 10:52:30;;;;;;;5.20;4.65;;;31.20;95.60;;;;;;4957509;28;20640;-60
2023/06/13 10:55:01;;;;;;;9.68;7.15;;;31.30;93.40;;;;;;4956682;28;20202;-60
2023/06/13 10:57:51;;;;;;;10.38;7.20;;;31.40;92.10;;;;;;4943493;28;20232;-60
2023/06/13 11:00:31;;;;;;;7.68;6.93;;;31.20;93.70;;;;;;4955232;28;20574;-60
2023/06/13 11:03:01;;;;;;;7.15;5.40;;;31.30;92.60;;;;;;4954230;28;20228;-60
2023/06/13 11:05:30;;;;;;;5.25;4.80;;;31.40;92.30;;;;;;4956757;28;20228;-60
2023/06/13 11:08:14;;;;;;;5.25;4.85;;;31.40;92.60;;;;;;4956935;28;20224;-60
2023/06/13 11:10:44;;;;;;;5.43;4.68;;;31.30;91.70;;;;;;4947461;28;20232;-60
2023/06/13 11:13:22;;;;;;;8.13;4.55;;;31.30;90.60;;;;;;4955122;29;20544;-60
2023/06/13 11:15:54;;;;;;;6.20;4.03;;;31.40;92.00;;;;;;4953030;29;20240;-60
2023/06/13 11:18:32;;;;;;;8.02;4.40;;;31.40;89.60;;;;;;4955766;28;20231;-60
2023/06/13 11:21:03;;;;;;;5.47;4.50;;;31.40;89.00;;;;;;4956848;28;20710;-60
2023/06/13 11:23:49;;;;;;;4.80;4.40;;;31.50;90.60;;;;;;4956932;28;20239;-60
2023/06/13 11:26:22;;;;;;;5.55;4.50;;;31.50;90.10;;;;;;4951370;28;20244;-60
2023/06/13 11:28:52;;;;;;;6.38;4.35;;;31.50;91.10;;;;;;4957150;28;20235;-60
2023/06/13 11:31:21;;;;;;;9.35;4.63;;;31.50;89.10;;;;;;4956627;28;20287;-59
2023/06/13 11:33:52;;;;;;;8.85;4.65;;;31.50;89.50;;;;;;4954230;28;20224;-60
2023/06/13 11:36:21;;;;;;;9.80;4.70;;;31.40;89.00;;;;;;4948557;28;20232;-60
2023/06/13 11:39:02;;;;;;;5.10;4.50;;;31.40;90.20;;;;;;4954163;28;20310;-60
2023/06/13 11:41:30;;;;;;;5.60;4.60;;;31.40;89.20;;;;;;4955184;28;20230;-60
2023/06/13 11:44:00;;;;;;;4.80;4.50;;;31.40;87.80;;;;;;4956601;28;20235;-59
2023/06/13 11:46:29;;;;;;;4.65;4.32;;;31.60;90.00;;;;;;4950741;28;20251;-60
2023/06/13 11:48:57;;;;;;;4.68;4.25;;;31.90;90.60;;;;;;4952967;29;20255;-60
2023/06/13 11:51:29;;;;;;;4.70;4.40;;;31.70;89.70;;;;;;4955947;28;20223;-61
2023/06/13 11:53:59;;;;;;;5.13;4.25;;;31.80;87.20;;;;;;4947809;28;20231;-60
2023/06/13 11:57:06;;;;;;;6.13;4.82;;;32.00;83.90;;;;;;4954545;28;20323;-60
2023/06/13 11:59:39;;;;;;;6.10;4.45;;;32.00;84.30;;;;;;4949233;28;20648;-60
2023/06/13 12:02:08;;;;;;;4.90;4.50;;;31.80;86.50;;;;;;4956099;28;20228;-60
2023/06/13 12:04:39;;;;;;;7.40;4.72;;;31.60;84.20;;;;;;4956368;28;20278;-60
2023/06/13 12:07:13;;;;;;;5.03;4.45;;;31.40;87.40;;;;;;4955143;29;20202;-60
2023/06/13 12:09:43;;;;;;;4.80;4.50;;;31.30;83.80;;;;;;4951395;28;20231;-60
2023/06/13 12:12:12;;;;;;;5.32;4.25;;;31.40;88.10;;;;;;4952452;28;20599;-60
2023/06/13 12:14:42;;;;;;;9.30;5.15;;;31.30;87.00;;;;;;4952120;28;20230;-60
2023/06/13 12:17:10;;;;;;;5.65;4.80;;;31.20;85.80;;;;;;4953839;28;20602;-60
2023/06/13 12:19:38;;;;;;;6.35;4.97;;;31.20;88.60;;;;;;4955264;28;20248;-59
2023/06/13 12:22:08;;;;;;;5.60;5.20;;;31.40;87.20;;;;;;4954308;28;20654;-60
2023/06/13 12:24:37;;;;;;;5.22;4.72;;;31.50;89.00;;;;;;4953410;28;20328;-60
2023/06/13 12:27:07;;;;;;;5.72;5.13;;;31.40;85.00;;;;;;4946703;28;20320;-60
2023/06/13 12:29:35;;;;;;;6.15;4.90;;;31.30;82.70;;;;;;4946913;28;20253;-60
2023/06/13 12:32:06;;;;;;;6.90;5.13;;;30.90;83.10;;;;;;4944679;28;20233;-59
2023/06/13 12:34:41;;;;;;;5.85;4.63;;;30.70;88.60;;;;;;4950546;28;20202;-59
2023/06/13 12:37:12;;;;;;;5.60;5.10;;;30.80;86.30;;;;;;4956631;28;20199;-60
2023/06/13 12:40:10;;;;;;;6.10;5.07;;;30.90;86.80;;;;;;4955794;28;20244;-60
2023/06/13 12:42:42;;;;;;;5.32;4.93;;;30.80;89.10;;;;;;4954025;28;20235;-59
2023/06/13 12:45:11;;;;;;;5.57;5.03;;;30.70;82.00;;;;;;4953467;28;20240;-60
2023/06/13 12:47:39;;;;;;;5.55;5.03;;;30.70;88.00;;;;;;4953869;28;20593;-60
2023/06/13 12:50:08;;;;;;;5.85;5.32;;;30.70;83.50;;;;;;4955609;28;20233;-59
2023/06/13 12:52:38;;;;;;;5.50;4.88;;;30.70;85.10;;;;;;4952888;28;20197;-59
2023/06/13 12:55:08;;;;;;;5.57;4.60;;;30.90;89.60;;;;;;4954587;28;20694;-60
2023/06/13 12:57:36;;;;;;;6.47;5.25;;;31.10;88.60;;;;;;4954024;28;20709;-60
2023/06/13 13:00:10;;;;;;;5.50;5.05;;;31.20;87.00;;;;;;4953593;28;20227;-60
2023/06/13 13:02:39;;;;;;;5.65;5.13;;;31.20;85.60;;;;;;4951672;28;20216;-59
2023/06/13 13:05:08;;;;;;;5.60;5.10;;;31.50;88.60;;;;;;4951470;28;20283;-59